createdAt,value
2022-11-18T00:00:29.988Z,34.56
2022-11-18T00:01:01.351Z,34.41
2022-11-18T00:01:32.736Z,34.44
2022-11-18T00:02:04.134Z,34.49
2022-11-18T00:02:35.651Z,34.59
2022-11-18T00:03:07.108Z,34.43
2022-11-18T00:03:38.470Z,34.55
2022-11-18T00:04:09.866Z,34.60
2022-11-18T00:04:41.157Z,34.52
2022-11-18T00:05:12.559Z,34.58
2022-11-18T00:05:44.004Z,34.57
2022-11-18T00:06:15.423Z,34.54
2022-11-18T00:06:46.794Z,34.52
2022-11-18T00:07:18.194Z,34.53
2022-11-18T00:07:49.581Z,34.43
2022-11-18T00:08:20.926Z,34.54
2022-11-18T00:08:52.302Z,34.52
2022-11-18T00:09:23.663Z,34.34
2022-11-18T00:09:55.111Z,34.55
2022-11-18T00:10:26.472Z,34.57
2022-11-18T00:10:57.877Z,34.61
2022-11-18T00:11:29.248Z,34.46
2022-11-18T00:12:00.629Z,34.52
2022-11-18T00:12:31.990Z,34.34
2022-11-18T00:13:03.425Z,34.54
2022-11-18T00:13:34.801Z,34.60
2022-11-18T00:14:06.198Z,34.34
2022-11-18T00:14:37.564Z,34.43
2022-11-18T00:15:08.926Z,34.36
2022-11-18T00:15:40.311Z,34.32
2022-11-18T00:16:11.699Z,34.49
2022-11-18T00:16:43.038Z,34.44
2022-11-18T00:17:14.421Z,34.44
2022-11-18T00:17:45.826Z,34.35
2022-11-18T00:18:17.179Z,34.41
2022-11-18T00:18:48.614Z,34.37
2022-11-18T00:19:20.214Z,34.40
2022-11-18T00:19:51.683Z,34.53
2022-11-18T00:20:23.038Z,34.45
2022-11-18T00:20:54.394Z,34.43
2022-11-18T00:21:25.780Z,34.46
2022-11-18T00:21:57.152Z,34.52
2022-11-18T00:22:30.017Z,34.63
2022-11-18T00:23:01.532Z,34.64
2022-11-18T00:23:32.867Z,34.46
2022-11-18T00:24:04.228Z,34.49
2022-11-18T00:24:35.579Z,34.46
2022-11-18T00:25:06.945Z,34.40
2022-11-18T00:25:38.292Z,34.43
2022-11-18T00:26:09.629Z,34.45
2022-11-18T00:26:41.014Z,34.54
2022-11-18T00:27:12.336Z,34.59
2022-11-18T00:27:43.744Z,34.51
2022-11-18T00:28:15.147Z,34.55
2022-11-18T00:28:46.523Z,34.67
2022-11-18T00:29:18.227Z,34.41
2022-11-18T00:29:49.707Z,34.39
2022-11-18T00:30:21.028Z,34.34
2022-11-18T00:30:52.383Z,34.54
2022-11-18T00:31:23.741Z,34.27
2022-11-18T00:31:55.108Z,34.29
2022-11-18T00:32:26.468Z,34.32
2022-11-18T00:32:57.824Z,34.33
2022-11-18T00:33:29.201Z,34.30
2022-11-18T00:34:00.553Z,34.21
2022-11-18T00:34:31.942Z,34.25
2022-11-18T00:35:03.312Z,34.28
2022-11-18T00:35:34.648Z,34.36
2022-11-18T00:36:05.995Z,34.30
2022-11-18T00:36:37.326Z,34.38
2022-11-18T00:37:08.663Z,34.29
2022-11-18T00:37:40.014Z,34.34
2022-11-18T00:38:11.398Z,34.43
2022-11-18T00:38:42.759Z,34.20
2022-11-18T00:39:14.513Z,34.28
2022-11-18T00:39:46.263Z,34.17
2022-11-18T00:40:17.646Z,34.29
2022-11-18T00:40:48.949Z,34.32
2022-11-18T00:41:20.312Z,34.32
2022-11-18T00:41:51.661Z,34.31
2022-11-18T00:42:22.990Z,34.19
2022-11-18T00:42:54.344Z,34.19
2022-11-18T00:43:25.719Z,34.46
2022-11-18T00:43:58.346Z,34.38
2022-11-18T00:44:29.746Z,34.29
2022-11-18T00:45:01.124Z,34.45
2022-11-18T00:45:32.465Z,34.41
2022-11-18T00:46:03.864Z,34.39
2022-11-18T00:46:35.243Z,34.16
2022-11-18T00:47:06.624Z,34.41
2022-11-18T00:47:38.015Z,34.43
2022-11-18T00:48:09.384Z,34.32
2022-11-18T00:48:40.778Z,34.29
2022-11-18T00:49:12.222Z,34.43
2022-11-18T00:49:43.630Z,34.32
2022-11-18T00:50:14.975Z,34.54
2022-11-18T00:50:46.371Z,34.37
2022-11-18T00:51:17.764Z,34.42
2022-11-18T00:51:49.122Z,34.51
2022-11-18T00:52:20.453Z,34.67
2022-11-18T00:52:51.791Z,34.33
2022-11-18T00:53:23.197Z,34.46
2022-11-18T00:53:54.509Z,34.37
2022-11-18T00:54:25.882Z,34.46
2022-11-18T00:54:57.296Z,34.33
2022-11-18T00:55:28.675Z,34.40
2022-11-18T00:56:00.051Z,34.48
2022-11-18T00:56:31.419Z,34.38
2022-11-18T00:57:02.780Z,34.48
2022-11-18T00:57:34.182Z,34.46
2022-11-18T00:58:05.582Z,34.33
2022-11-18T00:58:36.955Z,34.38
2022-11-18T00:59:08.286Z,34.38
2022-11-18T00:59:39.760Z,34.47
2022-11-18T01:00:11.129Z,34.27
2022-11-18T01:00:42.550Z,34.47
2022-11-18T01:01:14.016Z,34.41
2022-11-18T01:01:45.525Z,34.49
2022-11-18T01:02:16.893Z,34.31
2022-11-18T01:02:48.288Z,34.41
2022-11-18T01:03:19.645Z,34.32
2022-11-18T01:03:51.006Z,34.34
2022-11-18T01:04:22.403Z,34.51
2022-11-18T01:04:53.815Z,34.29
2022-11-18T01:05:25.121Z,34.47
2022-11-18T01:05:56.469Z,34.38
2022-11-18T01:06:27.827Z,34.40
2022-11-18T01:06:59.301Z,34.47
2022-11-18T01:07:30.818Z,34.40
2022-11-18T01:08:02.348Z,34.23
2022-11-18T01:08:33.676Z,34.44
2022-11-18T01:09:04.995Z,34.47
2022-11-18T01:09:36.322Z,34.32
2022-11-18T01:10:07.774Z,34.45
2022-11-18T01:10:39.140Z,34.20
2022-11-18T01:11:10.526Z,34.57
2022-11-18T01:11:41.880Z,34.53
2022-11-18T01:12:13.242Z,34.58
2022-11-18T01:12:44.600Z,34.43
2022-11-18T01:13:16.001Z,34.43
2022-11-18T01:13:47.357Z,34.31
2022-11-18T01:14:18.703Z,34.26
2022-11-18T01:14:50.047Z,34.38
2022-11-18T01:15:21.470Z,34.46
2022-11-18T01:15:52.864Z,34.35
2022-11-18T01:16:24.249Z,34.59
2022-11-18T01:16:55.581Z,34.30
2022-11-18T01:17:26.904Z,34.48
2022-11-18T01:17:58.283Z,34.34
2022-11-18T01:18:29.649Z,34.40
2022-11-18T01:19:00.995Z,34.40
2022-11-18T01:19:32.353Z,34.44
2022-11-18T01:20:03.755Z,34.41
2022-11-18T01:20:35.201Z,34.40
2022-11-18T01:21:06.610Z,34.39
2022-11-18T01:21:37.968Z,34.33
2022-11-18T01:22:09.375Z,34.46
2022-11-18T01:22:40.817Z,34.35
2022-11-18T01:23:12.161Z,34.61
2022-11-18T01:23:43.520Z,34.64
2022-11-18T01:24:14.876Z,34.50
2022-11-18T01:24:46.272Z,34.38
2022-11-18T01:25:17.675Z,34.27
2022-11-18T01:25:49.058Z,34.32
2022-11-18T01:26:20.418Z,34.47
2022-11-18T01:26:51.762Z,34.48
2022-11-18T01:27:23.109Z,34.27
2022-11-18T01:27:54.496Z,34.49
2022-11-18T01:28:25.810Z,34.47
2022-11-18T01:28:57.149Z,34.34
2022-11-18T01:29:28.473Z,34.49
2022-11-18T01:29:59.834Z,34.39
2022-11-18T01:30:31.300Z,34.44
2022-11-18T01:31:02.700Z,34.40
2022-11-18T01:31:34.031Z,34.46
2022-11-18T01:32:56.712Z,34.35
2022-11-18T01:33:27.992Z,34.55
2022-11-18T01:33:59.340Z,34.49
2022-11-18T01:34:30.673Z,34.45
2022-11-18T01:35:02.065Z,34.38
2022-11-18T01:35:33.446Z,34.38
2022-11-18T01:36:04.815Z,34.39
2022-11-18T01:36:36.182Z,34.45
2022-11-18T01:37:07.537Z,34.37
2022-11-18T01:37:38.967Z,34.58
2022-11-18T01:38:10.306Z,34.38
2022-11-18T01:38:41.726Z,34.57
2022-11-18T01:39:13.078Z,34.42
2022-11-18T01:39:44.451Z,34.47
2022-11-18T01:40:15.808Z,34.38
2022-11-18T01:40:47.166Z,34.40
2022-11-18T01:41:18.545Z,34.41
2022-11-18T01:41:49.927Z,34.39
2022-11-18T01:42:21.275Z,34.49
2022-11-18T01:42:52.613Z,34.38
2022-11-18T01:43:23.970Z,34.48
2022-11-18T01:43:55.327Z,34.41
2022-11-18T01:44:26.694Z,34.48
2022-11-18T01:44:58.094Z,34.40
2022-11-18T01:45:29.506Z,34.41
2022-11-18T01:46:00.850Z,34.56
2022-11-18T01:46:32.227Z,34.29
2022-11-18T01:47:03.586Z,34.32
2022-11-18T01:47:34.944Z,34.37
2022-11-18T01:48:06.358Z,34.26
2022-11-18T01:48:37.734Z,34.45
2022-11-18T01:49:09.157Z,34.46
2022-11-18T01:49:40.558Z,34.34
2022-11-18T01:50:11.977Z,34.32
2022-11-18T01:50:43.420Z,34.43
2022-11-18T01:51:14.781Z,34.26
2022-11-18T01:51:46.199Z,34.49
2022-11-18T01:52:17.543Z,34.44
2022-11-18T01:52:51.658Z,34.47
2022-11-18T01:53:23.451Z,34.43
2022-11-18T01:53:54.837Z,34.27
2022-11-18T01:54:26.172Z,34.50
2022-11-18T01:54:57.554Z,34.30
2022-11-18T01:55:28.916Z,34.44
2022-11-18T01:56:00.312Z,34.57
2022-11-18T01:56:31.703Z,34.64
2022-11-18T01:57:03.048Z,34.41
2022-11-18T01:57:34.386Z,34.49
2022-11-18T01:58:05.719Z,34.35
2022-11-18T01:58:37.095Z,34.31
2022-11-18T01:59:08.508Z,34.38
2022-11-18T01:59:39.858Z,34.43
2022-11-18T02:00:11.262Z,34.35
2022-11-18T02:00:42.674Z,34.39
2022-11-18T02:01:14.162Z,34.41
2022-11-18T02:01:45.657Z,34.31
2022-11-18T02:02:17.042Z,34.47
2022-11-18T02:02:48.410Z,34.32
2022-11-18T02:03:19.769Z,34.48
2022-11-18T02:03:51.143Z,34.50
2022-11-18T02:04:22.539Z,34.41
2022-11-18T02:04:53.894Z,34.56
2022-11-18T02:05:25.339Z,34.53
2022-11-18T02:05:56.737Z,34.57
2022-11-18T02:06:28.138Z,34.39
2022-11-18T02:06:59.555Z,34.44
2022-11-18T02:07:30.997Z,34.30
2022-11-18T02:08:02.431Z,34.48
2022-11-18T02:08:33.847Z,34.49
2022-11-18T02:09:05.219Z,34.55
2022-11-18T02:09:36.603Z,34.48
2022-11-18T02:10:07.980Z,34.50
2022-11-18T02:10:39.320Z,34.47
2022-11-18T02:11:10.714Z,34.24
2022-11-18T02:11:42.138Z,34.29
2022-11-18T02:12:13.551Z,34.43
2022-11-18T02:12:44.970Z,34.39
2022-11-18T02:13:16.345Z,34.45
2022-11-18T02:13:47.711Z,34.49
2022-11-18T02:14:19.086Z,34.27
2022-11-18T02:14:50.495Z,34.13
2022-11-18T02:15:21.908Z,34.33
2022-11-18T02:15:53.299Z,34.20
2022-11-18T02:16:24.656Z,34.11
2022-11-18T02:16:56.088Z,34.11
2022-11-18T02:17:27.549Z,34.29
2022-11-18T02:17:58.897Z,34.21
2022-11-18T02:18:30.276Z,34.08
2022-11-18T02:19:01.676Z,34.22
2022-11-18T02:19:33.015Z,34.25
2022-11-18T02:20:04.391Z,34.24
2022-11-18T02:20:35.754Z,34.14
2022-11-18T02:21:07.145Z,34.26
2022-11-18T02:21:38.482Z,34.12
2022-11-18T02:22:09.903Z,34.39
2022-11-18T02:22:41.286Z,34.21
2022-11-18T02:23:12.662Z,34.38
2022-11-18T02:23:44.044Z,34.31
2022-11-18T02:24:15.422Z,34.23
2022-11-18T02:24:46.760Z,34.40
2022-11-18T02:25:18.185Z,34.43
2022-11-18T02:25:49.536Z,34.37
2022-11-18T02:26:20.894Z,34.24
2022-11-18T02:26:52.262Z,34.23
2022-11-18T02:27:23.718Z,34.26
2022-11-18T02:27:55.051Z,34.42
2022-11-18T02:28:26.476Z,34.23
2022-11-18T02:28:57.868Z,34.40
2022-11-18T02:29:29.265Z,34.48
2022-11-18T02:30:00.602Z,34.33
2022-11-18T02:30:32.005Z,34.21
2022-11-18T02:31:03.450Z,34.42
2022-11-18T02:31:34.826Z,34.56
2022-11-18T02:32:06.195Z,34.30
2022-11-18T02:32:37.612Z,34.43
2022-11-18T02:33:08.956Z,34.45
2022-11-18T02:33:40.297Z,34.50
2022-11-18T02:34:11.642Z,34.39
2022-11-18T02:34:42.973Z,34.46
2022-11-18T02:35:14.324Z,34.33
2022-11-18T02:35:45.708Z,34.23
2022-11-18T02:36:17.142Z,34.29
2022-11-18T02:36:48.513Z,34.39
2022-11-18T02:37:19.868Z,34.25
2022-11-18T02:37:51.285Z,34.29
2022-11-18T02:38:22.655Z,34.32
2022-11-18T02:38:54.038Z,34.30
2022-11-18T02:39:25.391Z,34.27
2022-11-18T02:39:56.791Z,34.11
2022-11-18T02:40:28.129Z,34.07
2022-11-18T02:40:59.531Z,34.23
2022-11-18T02:41:30.898Z,34.31
2022-11-18T02:42:02.270Z,34.17
2022-11-18T02:42:33.722Z,34.30
2022-11-18T02:43:05.107Z,34.31
2022-11-18T02:43:36.509Z,34.25
2022-11-18T02:44:07.844Z,34.42
2022-11-18T02:44:39.258Z,34.22
2022-11-18T02:45:10.580Z,34.30
2022-11-18T02:45:41.982Z,34.34
2022-11-18T02:46:13.355Z,34.28
2022-11-18T02:46:44.720Z,34.32
2022-11-18T02:47:16.110Z,34.16
2022-11-18T02:47:47.504Z,34.28
2022-11-18T02:48:18.937Z,34.23
2022-11-18T02:48:50.331Z,34.33
2022-11-18T02:49:21.717Z,34.15
2022-11-18T02:49:53.135Z,34.15
2022-11-18T02:50:24.519Z,34.30
2022-11-18T02:50:55.869Z,34.28
2022-11-18T02:51:27.202Z,34.32
2022-11-18T02:51:58.530Z,34.12
2022-11-18T02:52:29.912Z,34.29
2022-11-18T02:53:01.309Z,34.18
2022-11-18T02:53:32.679Z,34.39
2022-11-18T02:54:04.005Z,34.20
2022-11-18T02:54:35.358Z,34.30
2022-11-18T02:55:06.702Z,34.27
2022-11-18T02:55:38.085Z,34.42
2022-11-18T02:56:09.432Z,34.28
2022-11-18T02:56:40.892Z,34.22
2022-11-18T02:57:12.265Z,34.41
2022-11-18T02:57:43.646Z,34.33
2022-11-18T02:58:15.084Z,34.33
2022-11-18T02:58:46.442Z,34.33
2022-11-18T02:59:18.036Z,34.39
2022-11-18T02:59:49.499Z,34.47
2022-11-18T03:00:20.899Z,34.42
2022-11-18T03:00:52.293Z,34.40
2022-11-18T03:01:23.731Z,34.50
2022-11-18T03:01:55.235Z,34.29
2022-11-18T03:02:26.642Z,34.52
2022-11-18T03:02:58.059Z,34.45
2022-11-18T03:03:29.493Z,34.45
2022-11-18T03:04:00.875Z,34.43
2022-11-18T03:04:32.289Z,34.40
2022-11-18T03:05:03.668Z,34.25
2022-11-18T03:05:35.026Z,34.36
2022-11-18T03:06:06.386Z,34.33
2022-11-18T03:06:37.845Z,34.45
2022-11-18T03:07:09.312Z,34.40
2022-11-18T03:07:40.883Z,34.37
2022-11-18T03:08:12.312Z,34.42
2022-11-18T03:08:43.792Z,34.46
2022-11-18T03:09:15.426Z,34.41
2022-11-18T03:09:46.964Z,34.42
2022-11-18T03:10:18.353Z,34.45
2022-11-18T03:10:49.673Z,34.30
2022-11-18T03:11:21.049Z,34.31
2022-11-18T03:11:52.398Z,34.39
2022-11-18T03:12:23.800Z,34.40
2022-11-18T03:12:55.226Z,34.25
2022-11-18T03:13:26.594Z,34.40
2022-11-18T03:13:58.003Z,34.20
2022-11-18T03:14:29.371Z,34.31
2022-11-18T03:15:00.695Z,34.46
2022-11-18T03:15:32.078Z,34.33
2022-11-18T03:16:03.518Z,34.37
2022-11-18T03:16:34.900Z,34.16
2022-11-18T03:17:06.265Z,34.34
2022-11-18T03:17:37.613Z,34.41
2022-11-18T03:18:09.072Z,34.44
2022-11-18T03:18:40.526Z,34.50
2022-11-18T03:19:11.875Z,34.33
2022-11-18T03:19:43.260Z,34.46
2022-11-18T03:20:14.600Z,34.33
2022-11-18T03:20:45.975Z,34.54
2022-11-18T03:21:17.339Z,34.58
2022-11-18T03:21:48.701Z,34.42
2022-11-18T03:22:20.044Z,34.46
2022-11-18T03:22:51.403Z,34.62
2022-11-18T03:23:22.770Z,34.57
2022-11-18T03:23:54.218Z,34.49
2022-11-18T03:24:25.609Z,34.34
2022-11-18T03:24:56.996Z,34.47
2022-11-18T03:25:28.367Z,34.50
2022-11-18T03:25:59.725Z,34.50
2022-11-18T03:26:31.098Z,34.33
2022-11-18T03:27:02.557Z,34.44
2022-11-18T03:27:33.892Z,34.44
2022-11-18T03:28:05.229Z,34.37
2022-11-18T03:28:36.615Z,34.58
2022-11-18T03:29:08.002Z,34.59
2022-11-18T03:29:39.405Z,34.47
2022-11-18T03:30:10.821Z,34.49
2022-11-18T03:30:42.154Z,34.48
2022-11-18T03:31:13.522Z,34.48
2022-11-18T03:31:44.834Z,34.30
2022-11-18T03:32:16.204Z,34.33
2022-11-18T03:32:47.568Z,34.48
2022-11-18T03:33:18.902Z,34.50
2022-11-18T03:33:50.300Z,34.51
2022-11-18T03:34:21.755Z,34.35
2022-11-18T03:34:53.185Z,34.59
2022-11-18T03:35:24.573Z,34.42
2022-11-18T03:35:55.919Z,34.44
2022-11-18T03:36:27.287Z,34.48
2022-11-18T03:37:00.842Z,34.59
2022-11-18T03:37:32.569Z,34.41
2022-11-18T03:38:03.908Z,34.56
2022-11-18T03:38:35.316Z,34.38
2022-11-18T03:39:06.723Z,34.38
2022-11-18T03:39:38.097Z,34.40
2022-11-18T03:40:09.487Z,34.40
2022-11-18T03:40:40.884Z,34.35
2022-11-18T03:41:12.276Z,34.52
2022-11-18T03:41:43.638Z,34.50
2022-11-18T03:42:15.064Z,34.39
2022-11-18T03:42:46.465Z,34.36
2022-11-18T03:43:17.835Z,34.61
2022-11-18T03:43:49.175Z,34.45
2022-11-18T03:44:20.570Z,34.48
2022-11-18T03:44:52.727Z,34.57
2022-11-18T03:45:24.201Z,34.45
2022-11-18T03:45:55.563Z,34.50
2022-11-18T03:46:26.928Z,34.59
2022-11-18T03:46:58.287Z,34.57
2022-11-18T03:47:29.742Z,34.46
2022-11-18T03:48:01.141Z,34.52
2022-11-18T03:48:32.529Z,34.63
2022-11-18T03:49:03.901Z,34.68
2022-11-18T03:49:35.290Z,34.44
2022-11-18T03:50:06.673Z,34.52
2022-11-18T03:50:38.077Z,34.38
2022-11-18T03:51:09.452Z,34.47
2022-11-18T03:51:40.856Z,34.53
2022-11-18T03:52:12.227Z,34.53
2022-11-18T03:52:43.705Z,34.61
2022-11-18T03:53:15.090Z,34.38
2022-11-18T03:53:46.508Z,34.60
2022-11-18T03:54:17.921Z,34.53
2022-11-18T03:54:49.236Z,34.63
2022-11-18T03:55:20.618Z,34.67
2022-11-18T03:55:51.968Z,34.57
2022-11-18T03:56:23.360Z,34.54
2022-11-18T03:56:54.699Z,34.60
2022-11-18T03:57:26.035Z,34.38
2022-11-18T03:57:57.467Z,34.52
2022-11-18T03:58:28.840Z,34.60
2022-11-18T03:59:00.176Z,34.47
2022-11-18T03:59:31.574Z,34.43
2022-11-18T04:00:02.937Z,34.55
2022-11-18T04:00:34.298Z,34.68
2022-11-18T04:01:05.648Z,34.45
2022-11-18T04:01:37.039Z,34.69
2022-11-18T04:02:08.506Z,34.48
2022-11-18T04:02:39.939Z,34.41
2022-11-18T04:03:11.394Z,34.51
2022-11-18T04:03:42.810Z,34.44
2022-11-18T04:04:14.215Z,34.52
2022-11-18T04:04:45.574Z,34.44
2022-11-18T04:05:16.939Z,34.61
2022-11-18T04:05:48.336Z,34.45
2022-11-18T04:06:19.703Z,34.59
2022-11-18T04:06:51.130Z,34.45
2022-11-18T04:07:22.628Z,34.62
2022-11-18T04:07:54.044Z,34.67
2022-11-18T04:08:25.463Z,34.62
2022-11-18T04:08:56.838Z,34.63
2022-11-18T04:09:28.145Z,34.52
2022-11-18T04:09:59.470Z,34.47
2022-11-18T04:10:30.831Z,34.57
2022-11-18T04:11:02.169Z,34.54
2022-11-18T04:11:33.634Z,34.67
2022-11-18T04:12:05.068Z,34.62
2022-11-18T04:12:36.371Z,34.71
2022-11-18T04:13:07.786Z,34.58
2022-11-18T04:13:39.196Z,34.54
2022-11-18T04:14:10.527Z,34.45
2022-11-18T04:14:41.856Z,34.46
2022-11-18T04:15:13.188Z,34.65
2022-11-18T04:15:44.527Z,34.73
2022-11-18T04:16:15.877Z,34.55
2022-11-18T04:16:47.212Z,34.49
2022-11-18T04:17:18.578Z,34.50
2022-11-18T04:17:49.953Z,34.46
2022-11-18T04:18:21.346Z,34.21
2022-11-18T04:18:52.743Z,34.39
2022-11-18T04:19:24.294Z,34.52
2022-11-18T04:19:55.655Z,34.54
2022-11-18T04:20:27.034Z,34.61
2022-11-18T04:20:58.399Z,34.47
2022-11-18T04:21:29.761Z,34.46
2022-11-18T04:22:01.135Z,34.60
2022-11-18T04:22:32.518Z,34.51
2022-11-18T04:23:03.888Z,34.45
2022-11-18T04:23:35.346Z,34.57
2022-11-18T04:24:06.804Z,34.46
2022-11-18T04:24:38.196Z,34.65
2022-11-18T04:25:09.606Z,34.52
2022-11-18T04:25:40.974Z,34.53
2022-11-18T04:26:12.354Z,34.67
2022-11-18T04:26:43.736Z,34.54
2022-11-18T04:27:15.108Z,34.63
2022-11-18T04:27:46.458Z,34.65
2022-11-18T04:28:17.838Z,34.64
2022-11-18T04:28:49.230Z,34.46
2022-11-18T04:29:20.719Z,34.60
2022-11-18T04:29:52.128Z,34.51
2022-11-18T04:30:23.512Z,34.60
2022-11-18T04:30:54.865Z,34.49
2022-11-18T04:31:26.230Z,34.48
2022-11-18T04:31:57.610Z,34.56
2022-11-18T04:32:28.920Z,34.60
2022-11-18T04:33:00.295Z,34.56
2022-11-18T04:33:31.682Z,34.71
2022-11-18T04:34:03.068Z,34.53
2022-11-18T04:34:34.494Z,34.72
2022-11-18T04:35:05.855Z,34.44
2022-11-18T04:35:37.256Z,34.68
2022-11-18T04:36:08.592Z,34.53
2022-11-18T04:36:39.985Z,34.57
2022-11-18T04:37:11.341Z,34.67
2022-11-18T04:37:42.752Z,34.52
2022-11-18T04:38:19.116Z,34.69
2022-11-18T04:38:53.141Z,34.76
2022-11-18T04:39:24.507Z,34.59
2022-11-18T04:39:55.901Z,34.70
2022-11-18T04:40:27.301Z,34.80
2022-11-18T04:40:58.660Z,34.52
2022-11-18T04:41:30.085Z,34.57
2022-11-18T04:42:01.473Z,34.62
2022-11-18T04:42:32.855Z,34.63
2022-11-18T04:43:04.212Z,34.61
2022-11-18T04:43:35.623Z,34.74
2022-11-18T04:44:07.005Z,34.59
2022-11-18T04:44:38.398Z,34.56
2022-11-18T04:45:09.817Z,34.55
2022-11-18T04:45:41.199Z,34.76
2022-11-18T04:46:12.580Z,34.70
2022-11-18T04:46:44.055Z,34.67
2022-11-18T04:47:15.441Z,34.58
2022-11-18T04:47:46.790Z,34.46
2022-11-18T04:48:18.144Z,34.72
2022-11-18T04:48:49.555Z,34.59
2022-11-18T04:49:20.957Z,34.64
2022-11-18T04:49:52.470Z,34.69
2022-11-18T04:50:23.906Z,34.58
2022-11-18T04:50:55.313Z,34.68
2022-11-18T04:51:26.663Z,34.49
2022-11-18T04:51:58.045Z,34.75
2022-11-18T04:52:29.421Z,34.78
2022-11-18T04:53:00.799Z,34.70
2022-11-18T04:53:32.132Z,34.47
2022-11-18T04:54:03.515Z,34.81
2022-11-18T04:54:34.843Z,34.64
2022-11-18T04:55:06.184Z,34.73
2022-11-18T04:55:37.629Z,34.55
2022-11-18T04:56:08.963Z,34.77
2022-11-18T04:56:45.633Z,34.68
2022-11-18T04:57:20.015Z,34.69
2022-11-18T04:57:51.394Z,34.73
2022-11-18T04:58:22.731Z,34.46
2022-11-18T04:58:54.078Z,34.59
2022-11-18T04:59:25.449Z,34.60
2022-11-18T04:59:56.875Z,34.60
2022-11-18T05:00:28.330Z,34.62
2022-11-18T05:00:59.782Z,34.76
2022-11-18T05:01:31.282Z,34.71
2022-11-18T05:02:02.738Z,34.73
2022-11-18T05:02:34.116Z,34.65
2022-11-18T05:03:05.473Z,34.77
2022-11-18T05:03:36.872Z,34.49
2022-11-18T05:04:08.269Z,34.69
2022-11-18T05:04:39.609Z,34.83
2022-11-18T05:05:10.932Z,34.71
2022-11-18T05:05:42.367Z,34.69
2022-11-18T05:06:13.691Z,34.71
2022-11-18T05:06:45.023Z,34.56
2022-11-18T05:07:17.010Z,34.72
2022-11-18T05:07:49.287Z,34.62
2022-11-18T05:08:26.324Z,34.60
2022-11-18T05:08:57.698Z,34.66
2022-11-18T05:09:32.074Z,34.72
2022-11-18T05:10:03.676Z,34.52
2022-11-18T05:10:35.052Z,34.54
2022-11-18T05:11:06.379Z,34.62
2022-11-18T05:11:37.774Z,34.69
2022-11-18T05:12:09.130Z,34.60
2022-11-18T05:12:40.474Z,34.67
2022-11-18T05:13:11.906Z,34.57
2022-11-18T05:13:43.365Z,34.84
2022-11-18T05:14:14.709Z,34.55
2022-11-18T05:14:49.955Z,34.59
2022-11-18T05:15:22.002Z,34.64
2022-11-18T05:15:53.369Z,34.61
2022-11-18T05:16:24.723Z,34.61
2022-11-18T05:16:56.186Z,34.57
2022-11-18T05:17:27.580Z,34.62
2022-11-18T05:17:58.974Z,34.69
2022-11-18T05:18:30.347Z,34.83
2022-11-18T05:19:01.743Z,34.59
2022-11-18T05:19:33.162Z,34.74
2022-11-18T05:20:04.514Z,34.53
2022-11-18T05:20:40.237Z,34.82
2022-11-18T05:21:13.108Z,34.59
2022-11-18T05:21:44.577Z,34.78
2022-11-18T05:22:16.061Z,34.58
2022-11-18T05:22:47.474Z,34.61
2022-11-18T05:23:18.832Z,34.78
2022-11-18T05:23:50.206Z,34.72
2022-11-18T05:24:21.589Z,34.85
2022-11-18T05:24:52.953Z,34.62
2022-11-18T05:25:24.309Z,34.75
2022-11-18T05:26:01.218Z,34.67
2022-11-18T05:26:33.810Z,34.66
2022-11-18T05:27:05.166Z,34.78
2022-11-18T05:27:36.530Z,34.70
2022-11-18T05:28:07.895Z,34.73
2022-11-18T05:28:39.264Z,34.72
2022-11-18T05:29:10.649Z,34.61
2022-11-18T05:29:42.117Z,34.91
2022-11-18T05:30:13.525Z,34.87
2022-11-18T05:30:44.947Z,35.04
2022-11-18T05:31:16.396Z,34.69
2022-11-18T05:31:47.795Z,34.70
2022-11-18T05:32:19.209Z,34.77
2022-11-18T05:32:50.562Z,34.65
2022-11-18T05:33:21.919Z,34.83
2022-11-18T05:33:53.270Z,34.96
2022-11-18T05:34:24.668Z,34.77
2022-11-18T05:34:56.124Z,34.69
2022-11-18T05:35:27.477Z,34.81
2022-11-18T05:35:58.863Z,34.92
2022-11-18T05:36:30.223Z,34.69
2022-11-18T05:37:01.571Z,34.82
2022-11-18T05:37:32.967Z,34.79
2022-11-18T05:38:04.334Z,34.89
2022-11-18T05:38:35.692Z,34.80
2022-11-18T05:39:07.002Z,34.83
2022-11-18T05:39:38.319Z,34.61
2022-11-18T05:40:09.672Z,34.85
2022-11-18T05:40:41.045Z,34.78
2022-11-18T05:41:12.423Z,34.68
2022-11-18T05:41:43.814Z,34.76
2022-11-18T05:42:15.189Z,34.83
2022-11-18T05:42:46.555Z,34.85
2022-11-18T05:43:17.907Z,34.87
2022-11-18T05:43:49.246Z,34.73
2022-11-18T05:44:20.611Z,34.80
2022-11-18T05:44:57.680Z,34.76
2022-11-18T05:45:29.427Z,34.67
2022-11-18T05:46:00.819Z,34.51
2022-11-18T05:46:32.333Z,34.62
2022-11-18T05:47:03.766Z,34.92
2022-11-18T05:47:35.168Z,34.75
2022-11-18T05:48:06.499Z,34.75
2022-11-18T05:48:37.975Z,34.76
2022-11-18T05:49:09.342Z,34.75
2022-11-18T05:49:40.718Z,34.92
2022-11-18T05:50:12.052Z,34.61
2022-11-18T05:50:43.502Z,34.78
2022-11-18T05:51:14.852Z,34.88
2022-11-18T05:51:46.251Z,34.88
2022-11-18T05:52:17.619Z,34.74
2022-11-18T05:52:48.987Z,34.79
2022-11-18T05:53:20.323Z,34.88
2022-11-18T05:53:51.692Z,34.85
2022-11-18T05:54:23.084Z,34.73
2022-11-18T05:54:54.601Z,34.78
2022-11-18T05:55:25.985Z,34.70
2022-11-18T05:55:57.391Z,34.72
2022-11-18T05:56:28.871Z,34.79
2022-11-18T05:57:00.281Z,34.78
2022-11-18T05:57:31.681Z,34.63
2022-11-18T05:58:03.043Z,34.91
2022-11-18T05:58:34.415Z,34.68
2022-11-18T05:59:05.736Z,34.71
2022-11-18T05:59:37.073Z,34.83
2022-11-18T06:00:08.449Z,34.97
2022-11-18T06:00:39.939Z,34.92
2022-11-18T06:01:11.339Z,35.00
2022-11-18T06:01:42.710Z,34.73
2022-11-18T06:02:14.071Z,35.00
2022-11-18T06:02:45.509Z,34.83
2022-11-18T06:03:16.969Z,34.82
2022-11-18T06:03:48.358Z,34.82
2022-11-18T06:04:19.690Z,34.92
2022-11-18T06:04:51.060Z,34.74
2022-11-18T06:05:22.447Z,34.89
2022-11-18T06:05:53.827Z,34.75
2022-11-18T06:06:25.216Z,34.88
2022-11-18T06:06:56.601Z,34.79
2022-11-18T06:07:28.018Z,34.87
2022-11-18T06:07:59.436Z,34.75
2022-11-18T06:08:30.819Z,34.69
2022-11-18T06:09:02.196Z,34.78
2022-11-18T06:09:33.658Z,34.85
2022-11-18T06:10:05.993Z,34.76
2022-11-18T06:10:37.745Z,34.68
2022-11-18T06:11:09.116Z,34.62
2022-11-18T06:11:40.559Z,34.70
2022-11-18T06:12:12.002Z,34.88
2022-11-18T06:12:43.371Z,34.54
2022-11-18T06:13:14.726Z,34.66
2022-11-18T06:13:46.086Z,34.67
2022-11-18T06:14:17.463Z,34.65
2022-11-18T06:14:48.874Z,34.52
2022-11-18T06:15:20.227Z,34.58
2022-11-18T06:15:51.617Z,34.56
2022-11-18T06:16:22.951Z,34.49
2022-11-18T06:16:54.302Z,34.52
2022-11-18T06:17:25.655Z,34.55
2022-11-18T06:17:57.026Z,34.68
2022-11-18T06:18:28.373Z,34.62
2022-11-18T06:18:59.735Z,34.70
2022-11-18T06:19:31.091Z,34.77
2022-11-18T06:20:02.521Z,34.63
2022-11-18T06:20:33.870Z,34.61
2022-11-18T06:21:05.274Z,34.60
2022-11-18T06:21:36.620Z,34.78
2022-11-18T06:22:08.039Z,34.76
2022-11-18T06:22:45.004Z,34.68
2022-11-18T06:23:17.766Z,34.77
2022-11-18T06:23:49.087Z,34.50
2022-11-18T06:24:20.382Z,34.69
2022-11-18T06:24:51.723Z,34.69
2022-11-18T06:25:23.129Z,34.66
2022-11-18T06:25:54.479Z,34.59
2022-11-18T06:26:25.817Z,34.62
2022-11-18T06:26:57.345Z,34.70
2022-11-18T06:27:28.722Z,34.73
2022-11-18T06:28:00.099Z,34.69
2022-11-18T06:28:31.445Z,34.56
2022-11-18T06:29:02.808Z,34.62
2022-11-18T06:29:34.155Z,34.52
2022-11-18T06:30:05.543Z,34.67
2022-11-18T06:30:36.899Z,34.66
2022-11-18T06:31:08.256Z,34.52
2022-11-18T06:31:39.658Z,34.68
2022-11-18T06:32:11.041Z,34.71
2022-11-18T06:32:42.382Z,34.61
2022-11-18T06:33:13.743Z,34.54
2022-11-18T06:33:45.129Z,34.62
2022-11-18T06:34:16.501Z,34.67
2022-11-18T06:34:47.844Z,34.67
2022-11-18T06:35:19.179Z,34.73
2022-11-18T06:35:50.620Z,34.87
2022-11-18T06:36:21.957Z,34.66
2022-11-18T06:36:53.301Z,34.99
2022-11-18T06:37:24.626Z,34.93
2022-11-18T06:37:55.990Z,34.81
2022-11-18T06:38:27.324Z,34.79
2022-11-18T06:38:58.687Z,34.85
2022-11-18T06:39:30.031Z,34.77
2022-11-18T06:40:01.392Z,34.97
2022-11-18T06:40:34.883Z,34.92
2022-11-18T06:41:06.532Z,34.80
2022-11-18T06:41:37.943Z,34.84
2022-11-18T06:42:09.355Z,34.84
2022-11-18T06:42:40.717Z,34.79
2022-11-18T06:43:12.055Z,34.82
2022-11-18T06:43:43.420Z,34.94
2022-11-18T06:44:14.749Z,34.81
2022-11-18T06:44:46.146Z,34.66
2022-11-18T06:45:17.594Z,34.83
2022-11-18T06:45:49.004Z,34.85
2022-11-18T06:46:20.396Z,34.75